Time;durP1;ratioP1;P1;durP2;ratioP2;P2;SDS_P1;SDS_P2;PMS_P1;PMS_P2;Temp;Humidity;BMP_temperature;BMP_pressure;BME280_temperature;BME280_humidity;BME280_pressure;Samples;Min_cycle;Max_cycle;Signal;HPM_P1;HPM_P2
2022/08/30 00:01:11;;;;;;;;;4.67;4.67;;;;;;;;5115571;27;45501;-67
2022/08/30 00:03:46;;;;;;;;;5.00;2.33;;;;;;;;5118500;27;45384;-68
2022/08/30 00:06:13;;;;;;;;;3.67;3.33;;;;;;;;5117054;27;45418;-68
2022/08/30 00:08:39;;;;;;;;;3.33;3.00;;;;;;;;5124916;27;47559;-67
2022/08/30 00:11:06;;;;;;;;;3.33;3.33;;;;;;;;5116752;27;45421;-68
2022/08/30 00:13:31;;;;;;;;;6.00;6.00;;;;;;;;5125166;27;45345;-67
2022/08/30 00:15:57;;;;;;;;;4.67;4.00;;;;;;;;5119685;27;45321;-68
2022/08/30 00:18:22;;;;;;;;;4.67;3.33;;;;;;;;5111577;27;47413;-68
2022/08/30 00:20:48;;;;;;;;;5.67;5.67;;;;;;;;5112167;27;45494;-67
2022/08/30 00:23:14;;;;;;;;;4.67;4.00;;;;;;;;5114572;27;45366;-67
2022/08/30 00:25:39;;;;;;;;;5.00;5.00;;;;;;;;5113822;27;45628;-68
2022/08/30 00:28:04;;;;;;;;;4.67;4.67;;;;;;;;5116183;27;47150;-67
2022/08/30 00:30:30;;;;;;;;;3.67;3.67;;;;;;;;5119463;27;45267;-67
2022/08/30 00:32:55;;;;;;;;;4.33;4.33;;;;;;;;5124528;27;45234;-67
2022/08/30 00:35:21;;;;;;;;;5.33;4.67;;;;;;;;5120849;27;45825;-67
2022/08/30 00:37:47;;;;;;;;;4.67;4.67;;;;;;;;5117497;27;46801;-68
2022/08/30 00:40:14;;;;;;;;;5.33;4.00;;;;;;;;5121457;27;46094;-67
2022/08/30 00:42:40;;;;;;;;;7.67;5.00;;;;;;;;5118811;27;45379;-67
2022/08/30 00:45:11;;;;;;;;;5.00;3.00;;;;;;;;5110281;27;45357;-67
2022/08/30 00:47:36;;;;;;;;;3.00;3.00;;;;;;;;5118122;27;47455;-67
2022/08/30 00:50:02;;;;;;;;;7.33;5.33;;;;;;;;5111277;27;45443;-68
2022/08/30 00:52:27;;;;;;;;;5.67;4.67;;;;;;;;5114808;27;45328;-67
2022/08/30 00:54:52;;;;;;;;;5.67;4.00;;;;;;;;5114654;27;45570;-67
2022/08/30 00:57:18;;;;;;;;;5.67;5.33;;;;;;;;5116185;27;46360;-67
2022/08/30 00:59:45;;;;;;;;;5.00;5.00;;;;;;;;5119274;27;45325;-67
2022/08/30 01:02:10;;;;;;;;;6.00;4.67;;;;;;;;5121829;27;45523;-67
2022/08/30 01:04:36;;;;;;;;;2.67;2.33;;;;;;;;5122368;27;45767;-68
2022/08/30 01:07:01;;;;;;;;;8.00;5.67;;;;;;;;5119480;27;45378;-67
2022/08/30 01:09:27;;;;;;;;;5.00;5.00;;;;;;;;5118254;27;45517;-67
2022/08/30 01:11:52;;;;;;;;;3.67;3.33;;;;;;;;5119682;27;45505;-67
2022/08/30 01:14:20;;;;;;;;;3.00;3.00;;;;;;;;5117284;27;45496;-67
2022/08/30 01:16:45;;;;;;;;;2.67;2.67;;;;;;;;5121388;27;46474;-67
2022/08/30 01:19:24;;;;;;;;;5.00;5.00;;;;;;;;5120259;27;45355;-67
2022/08/30 01:21:53;;;;;;;;;6.67;5.00;;;;;;;;5118996;27;45404;-67
2022/08/30 01:24:18;;;;;;;;;6.00;4.00;;;;;;;;5118951;27;45587;-67
2022/08/30 01:26:44;;;;;;;;;6.00;3.67;;;;;;;;5116923;27;46283;-68
2022/08/30 01:29:12;;;;;;;;;8.00;7.00;;;;;;;;5122963;27;45276;-68
2022/08/30 01:31:37;;;;;;;;;6.33;5.00;;;;;;;;5121459;27;45253;-67
2022/08/30 01:34:04;;;;;;;;;6.00;4.67;;;;;;;;5122959;27;45523;-67
2022/08/30 01:36:29;;;;;;;;;4.67;4.00;;;;;;;;5117742;27;48261;-67
2022/08/30 01:38:55;;;;;;;;;5.67;5.67;;;;;;;;5116912;27;45308;-67
2022/08/30 01:41:20;;;;;;;;;6.00;4.67;;;;;;;;5111955;27;45246;-67
2022/08/30 01:43:47;;;;;;;;;6.00;4.00;;;;;;;;5116657;27;45554;-67
2022/08/30 01:46:13;;;;;;;;;6.00;5.00;;;;;;;;5110114;27;47282;-65
2022/08/30 01:48:40;;;;;;;;;5.33;3.00;;;;;;;;5122255;27;45646;-65
2022/08/30 01:51:05;;;;;;;;;7.00;5.00;;;;;;;;5114710;27;45527;-67
2022/08/30 01:53:31;;;;;;;;;3.67;2.00;;;;;;;;5121900;27;45356;-67
2022/08/30 01:55:57;;;;;;;;;5.00;4.00;;;;;;;;5116592;27;45444;-67
2022/08/30 01:58:22;;;;;;;;;5.00;3.00;;;;;;;;5123669;27;45378;-67
2022/08/30 02:00:47;;;;;;;;;9.67;4.00;;;;;;;;5117166;27;45598;-67
2022/08/30 02:03:12;;;;;;;;;7.67;6.00;;;;;;;;5116715;27;45431;-68
2022/08/30 02:05:38;;;;;;;;;6.67;4.00;;;;;;;;5109353;27;46588;-67
2022/08/30 02:08:03;;;;;;;;;8.00;6.00;;;;;;;;5123382;27;45352;-67
2022/08/30 02:10:29;;;;;;;;;4.00;4.00;;;;;;;;5110694;27;45469;-67
2022/08/30 02:12:54;;;;;;;;;4.67;4.00;;;;;;;;5121680;27;45425;-68
2022/08/30 02:15:19;;;;;;;;;6.00;4.00;;;;;;;;5120051;27;46676;-68
2022/08/30 02:17:45;;;;;;;;;4.00;4.00;;;;;;;;5108153;27;45444;-68
2022/08/30 02:20:10;;;;;;;;;4.00;4.00;;;;;;;;5108239;27;45310;-68
2022/08/30 02:22:35;;;;;;;;;5.00;5.00;;;;;;;;5113007;27;45593;-68
2022/08/30 02:25:00;;;;;;;;;4.33;4.33;;;;;;;;5107562;27;47021;-65
2022/08/30 02:27:26;;;;;;;;;6.00;3.00;;;;;;;;5114127;27;45374;-67
2022/08/30 02:29:51;;;;;;;;;5.00;4.00;;;;;;;;5116941;27;45491;-68
2022/08/30 02:32:16;;;;;;;;;4.00;4.00;;;;;;;;5117352;27;45414;-67
2022/08/30 02:34:41;;;;;;;;;6.33;4.00;;;;;;;;5114390;27;45777;-67
2022/08/30 02:37:07;;;;;;;;;7.00;5.00;;;;;;;;5114241;27;45141;-67
2022/08/30 02:39:33;;;;;;;;;5.33;5.33;;;;;;;;5117921;27;45327;-67
2022/08/30 02:41:58;;;;;;;;;5.00;5.00;;;;;;;;5115262;27;45599;-67
2022/08/30 02:44:23;;;;;;;;;5.00;5.00;;;;;;;;5114451;27;46386;-68
2022/08/30 02:46:48;;;;;;;;;7.00;6.00;;;;;;;;5112572;27;45370;-67
2022/08/30 02:49:14;;;;;;;;;4.00;4.00;;;;;;;;5118678;27;45410;-67
2022/08/30 02:51:39;;;;;;;;;8.00;6.67;;;;;;;;5117644;27;45298;-67
2022/08/30 02:54:04;;;;;;;;;11.00;7.67;;;;;;;;5118187;27;45348;-68
2022/08/30 02:56:30;;;;;;;;;6.67;6.00;;;;;;;;5113598;27;45341;-68
2022/08/30 02:58:55;;;;;;;;;6.00;6.00;;;;;;;;5112605;27;45180;-69
2022/08/30 03:01:20;;;;;;;;;6.67;4.33;;;;;;;;5115789;27;45568;-67
2022/08/30 03:03:45;;;;;;;;;11.00;9.00;;;;;;;;5121598;27;45479;-67
2022/08/30 03:06:11;;;;;;;;;7.33;7.00;;;;;;;;5113196;27;45517;-67
2022/08/30 03:08:36;;;;;;;;;6.00;6.00;;;;;;;;5120579;27;45320;-67
2022/08/30 03:11:02;;;;;;;;;7.33;6.67;;;;;;;;5110224;27;45533;-67
2022/08/30 03:13:27;;;;;;;;;8.00;8.00;;;;;;;;5107956;27;45442;-66
2022/08/30 03:15:53;;;;;;;;;8.00;8.00;;;;;;;;5109002;27;45510;-67
2022/08/30 03:18:19;;;;;;;;;6.33;6.33;;;;;;;;5109864;27;45307;-66
2022/08/30 03:20:44;;;;;;;;;10.33;9.00;;;;;;;;5112365;27;45350;-66
2022/08/30 03:23:10;;;;;;;;;10.67;8.67;;;;;;;;5112127;27;45410;-67
2022/08/30 03:25:35;;;;;;;;;8.00;7.00;;;;;;;;5108407;27;46541;-67
2022/08/30 03:28:00;;;;;;;;;8.00;8.00;;;;;;;;5120228;27;45515;-66
2022/08/30 03:30:25;;;;;;;;;8.00;5.00;;;;;;;;5116439;27;45787;-66
2022/08/30 03:32:51;;;;;;;;;5.00;5.00;;;;;;;;5118152;27;47014;-66
2022/08/30 03:35:16;;;;;;;;;11.67;9.00;;;;;;;;5116873;27;45703;-66
2022/08/30 03:37:42;;;;;;;;;4.67;4.67;;;;;;;;5111676;27;45750;-66
2022/08/30 03:40:08;;;;;;;;;12.33;10.33;;;;;;;;5108228;27;45493;-67
2022/08/30 03:42:34;;;;;;;;;11.33;10.00;;;;;;;;5114157;27;45394;-67
2022/08/30 03:45:01;;;;;;;;;10.67;9.67;;;;;;;;5109451;27;45305;-67
2022/08/30 03:47:26;;;;;;;;;11.00;10.33;;;;;;;;5117560;27;45435;-67
2022/08/30 03:49:51;;;;;;;;;13.67;13.67;;;;;;;;5112815;27;45308;-66
2022/08/30 03:52:16;;;;;;;;;14.67;12.67;;;;;;;;5119457;27;46704;-67
2022/08/30 03:54:41;;;;;;;;;10.67;9.67;;;;;;;;5114111;27;45234;-64
2022/08/30 03:57:07;;;;;;;;;12.00;10.00;;;;;;;;5120703;27;45326;-67
2022/08/30 03:59:32;;;;;;;;;9.33;7.67;;;;;;;;5117566;27;45436;-65
2022/08/30 04:01:57;;;;;;;;;9.33;6.00;;;;;;;;5119604;27;45415;-65
2022/08/30 04:04:23;;;;;;;;;11.00;9.33;;;;;;;;5120840;27;45316;-65
2022/08/30 04:06:48;;;;;;;;;11.00;10.00;;;;;;;;5119595;27;45447;-65
2022/08/30 04:09:13;;;;;;;;;8.33;8.33;;;;;;;;5118062;27;45571;-66
2022/08/30 04:11:39;;;;;;;;;10.67;9.67;;;;;;;;5117838;27;45576;-65
2022/08/30 04:14:04;;;;;;;;;6.33;6.33;;;;;;;;5119471;27;46404;-65
2022/08/30 04:16:29;;;;;;;;;10.33;8.33;;;;;;;;5122064;27;45660;-65
2022/08/30 04:18:54;;;;;;;;;12.33;12.33;;;;;;;;5120588;27;45341;-65
2022/08/30 04:21:19;;;;;;;;;7.67;6.67;;;;;;;;5122675;27;46712;-65
2022/08/30 04:23:46;;;;;;;;;9.33;9.00;;;;;;;;5123062;27;45347;-65
2022/08/30 04:26:11;;;;;;;;;7.67;6.67;;;;;;;;5119362;27;45337;-66
2022/08/30 04:28:36;;;;;;;;;10.33;8.00;;;;;;;;5120011;27;45430;-65
2022/08/30 04:31:14;;;;;;;;;8.33;8.33;;;;;;;;5119599;27;46318;-65
2022/08/30 04:33:39;;;;;;;;;11.00;8.33;;;;;;;;5111685;27;45242;-66
2022/08/30 04:36:05;;;;;;;;;11.67;10.67;;;;;;;;5112683;27;45273;-65
2022/08/30 04:38:31;;;;;;;;;11.67;9.33;;;;;;;;5115643;27;45569;-66
2022/08/30 04:40:57;;;;;;;;;12.67;10.33;;;;;;;;5111134;27;45409;-67
2022/08/30 04:43:24;;;;;;;;;7.67;5.00;;;;;;;;5117323;27;45237;-65
2022/08/30 04:45:51;;;;;;;;;12.67;11.00;;;;;;;;5119048;27;45741;-65
2022/08/30 04:48:17;;;;;;;;;11.33;7.33;;;;;;;;5119614;27;45612;-66
2022/08/30 04:50:42;;;;;;;;;17.00;11.33;;;;;;;;5120431;27;45578;-65
2022/08/30 04:53:08;;;;;;;;;12.33;10.67;;;;;;;;5123498;27;45379;-66
2022/08/30 04:55:33;;;;;;;;;9.67;8.67;;;;;;;;5121163;27;45256;-66
2022/08/30 04:57:59;;;;;;;;;10.00;10.00;;;;;;;;5115865;27;44770;-67
2022/08/30 05:00:24;;;;;;;;;11.00;9.67;;;;;;;;5118653;27;46097;-66
2022/08/30 05:02:50;;;;;;;;;8.00;8.00;;;;;;;;5118539;27;45352;-67
2022/08/30 05:07:59;;;;;;;;;8.00;8.00;;;;;;;;5123740;27;45407;-66
2022/08/30 05:10:26;;;;;;;;;13.67;12.33;;;;;;;;5113261;27;45294;-67
2022/08/30 05:12:51;;;;;;;;;13.00;11.67;;;;;;;;5121834;27;45407;-66
2022/08/30 05:15:16;;;;;;;;;8.33;7.67;;;;;;;;5114308;27;45371;-67
2022/08/30 05:17:42;;;;;;;;;10.33;10.33;;;;;;;;5122490;27;45350;-66
2022/08/30 05:20:08;;;;;;;;;10.33;9.00;;;;;;;;5117486;27;45522;-67
2022/08/30 05:22:38;;;;;;;;;14.67;13.67;;;;;;;;5121335;27;45417;-66
2022/08/30 05:25:04;;;;;;;;;9.33;9.33;;;;;;;;5121001;27;45331;-66
2022/08/30 05:27:30;;;;;;;;;11.00;10.00;;;;;;;;5122757;27;45943;-66
2022/08/30 05:29:55;;;;;;;;;10.00;9.33;;;;;;;;5118223;27;47610;-67
2022/08/30 05:32:20;;;;;;;;;8.33;7.67;;;;;;;;5122863;27;45405;-67
2022/08/30 05:34:46;;;;;;;;;11.67;8.67;;;;;;;;5113904;27;45433;-67
2022/08/30 05:37:11;;;;;;;;;10.00;8.33;;;;;;;;5117118;27;45250;-67
2022/08/30 05:39:36;;;;;;;;;14.00;11.00;;;;;;;;5104535;27;47489;-67
2022/08/30 05:42:01;;;;;;;;;12.00;9.67;;;;;;;;5118436;27;45369;-67
2022/08/30 05:44:26;;;;;;;;;10.67;7.33;;;;;;;;5108455;27;45450;-67
2022/08/30 05:46:52;;;;;;;;;11.00;8.67;;;;;;;;5117568;27;45414;-67
2022/08/30 05:49:17;;;;;;;;;11.00;9.67;;;;;;;;5109792;27;47819;-67
2022/08/30 05:51:43;;;;;;;;;12.33;9.33;;;;;;;;5117092;27;45462;-67
2022/08/30 05:54:08;;;;;;;;;12.33;11.00;;;;;;;;5116592;27;45556;-67
2022/08/30 05:56:35;;;;;;;;;15.33;12.00;;;;;;;;5114233;27;45555;-67
2022/08/30 05:59:02;;;;;;;;;10.00;8.67;;;;;;;;5122423;27;45639;-67
2022/08/30 06:01:30;;;;;;;;;16.00;12.00;;;;;;;;5114234;27;46187;-67
2022/08/30 06:03:57;;;;;;;;;13.00;13.00;;;;;;;;5121488;27;45277;-67
2022/08/30 06:06:23;;;;;;;;;9.33;9.33;;;;;;;;5108693;27;45495;-67
2022/08/30 06:08:49;;;;;;;;;12.67;9.67;;;;;;;;5108608;27;47693;-67
2022/08/30 06:11:16;;;;;;;;;13.00;11.00;;;;;;;;5110531;27;45302;-67
2022/08/30 06:13:41;;;;;;;;;9.00;9.00;;;;;;;;5111916;27;45222;-67
2022/08/30 06:16:07;;;;;;;;;9.67;8.00;;;;;;;;5113142;27;45412;-67
2022/08/30 06:18:32;;;;;;;;;7.00;7.00;;;;;;;;5111603;27;46727;-66
2022/08/30 06:20:57;;;;;;;;;14.33;8.00;;;;;;;;5114344;27;45462;-67
2022/08/30 06:23:23;;;;;;;;;11.00;11.00;;;;;;;;5115066;27;45374;-66
2022/08/30 06:25:49;;;;;;;;;12.00;10.67;;;;;;;;5117610;27;45236;-66
2022/08/30 06:28:14;;;;;;;;;7.33;6.00;;;;;;;;5117483;27;46428;-67
2022/08/30 06:30:40;;;;;;;;;13.33;11.67;;;;;;;;5117710;27;45162;-66
2022/08/30 06:33:05;;;;;;;;;17.67;12.33;;;;;;;;5113710;27;45567;-67
2022/08/30 06:35:31;;;;;;;;;10.00;9.33;;;;;;;;5119261;27;45562;-67
2022/08/30 06:37:56;;;;;;;;;12.33;11.00;;;;;;;;5120843;27;48240;-67
2022/08/30 06:40:22;;;;;;;;;10.33;10.33;;;;;;;;5107712;27;45335;-67
2022/08/30 06:42:47;;;;;;;;;12.33;11.67;;;;;;;;5115516;27;45249;-67
2022/08/30 06:45:14;;;;;;;;;15.00;13.67;;;;;;;;5107293;27;45404;-68
2022/08/30 06:47:39;;;;;;;;;22.00;12.67;;;;;;;;5117057;27;45663;-67
2022/08/30 06:50:05;;;;;;;;;14.33;9.67;;;;;;;;5110000;27;45443;-67
2022/08/30 06:52:30;;;;;;;;;11.33;11.33;;;;;;;;5112231;27;45293;-67
2022/08/30 06:54:57;;;;;;;;;11.33;9.33;;;;;;;;5110716;27;45465;-67
2022/08/30 06:57:23;;;;;;;;;11.33;8.67;;;;;;;;5112604;27;47152;-67
2022/08/30 06:59:48;;;;;;;;;13.00;10.00;;;;;;;;5117687;27;45285;-67
2022/08/30 07:02:13;;;;;;;;;11.33;11.33;;;;;;;;5116122;27;45403;-67
2022/08/30 07:04:38;;;;;;;;;14.33;12.67;;;;;;;;5118877;27;45284;-67
2022/08/30 07:07:03;;;;;;;;;10.33;8.67;;;;;;;;5114334;27;48015;-67
2022/08/30 07:09:29;;;;;;;;;11.33;9.67;;;;;;;;5106744;27;45120;-67
2022/08/30 07:11:54;;;;;;;;;11.00;8.67;;;;;;;;5109554;27;45321;-67
2022/08/30 07:14:20;;;;;;;;;3.00;2.00;;;;;;;;5116682;27;45376;-67
2022/08/30 07:16:45;;;;;;;;;14.67;13.00;;;;;;;;5113844;27;46463;-67
2022/08/30 07:19:10;;;;;;;;;18.67;17.33;;;;;;;;5115604;27;45295;-67
2022/08/30 07:21:37;;;;;;;;;12.33;10.67;;;;;;;;5117401;27;45564;-67
2022/08/30 07:24:03;;;;;;;;;13.00;12.67;;;;;;;;5119557;27;45245;-67
2022/08/30 07:26:37;;;;;;;;;11.00;9.33;;;;;;;;5121406;27;45911;-67
2022/08/30 07:29:02;;;;;;;;;17.00;14.33;;;;;;;;5118921;27;45323;-67
2022/08/30 07:31:28;;;;;;;;;10.67;7.00;;;;;;;;5122230;27;45481;-68
2022/08/30 07:33:53;;;;;;;;;13.33;12.00;;;;;;;;5121674;27;45263;-68
2022/08/30 07:36:20;;;;;;;;;11.50;11.50;;;;;;;;5118796;27;45388;-68
2022/08/30 07:38:46;;;;;;;;;15.00;11.67;;;;;;;;5123502;27;45359;-68
2022/08/30 07:41:16;;;;;;;;;11.67;10.00;;;;;;;;5117447;27;45444;-67
2022/08/30 07:43:41;;;;;;;;;12.33;10.33;;;;;;;;5120333;27;45569;-67
2022/08/30 07:46:07;;;;;;;;;13.00;11.00;;;;;;;;5110638;27;47355;-67
2022/08/30 07:48:32;;;;;;;;;11.33;8.00;;;;;;;;5122572;27;45292;-66
2022/08/30 07:50:57;;;;;;;;;15.00;12.67;;;;;;;;5109506;27;45316;-66
2022/08/30 07:53:23;;;;;;;;;12.33;11.00;;;;;;;;5115035;27;45506;-66
2022/08/30 07:55:48;;;;;;;;;12.33;12.33;;;;;;;;5109233;27;45394;-66
2022/08/30 07:58:13;;;;;;;;;11.00;11.00;;;;;;;;5120947;27;45315;-68
2022/08/30 08:00:39;;;;;;;;;10.00;10.00;;;;;;;;5117586;27;45401;-66
2022/08/30 08:03:06;;;;;;;;;13.00;12.00;;;;;;;;5122574;27;45427;-66
2022/08/30 08:05:31;;;;;;;;;13.67;10.33;;;;;;;;5120494;27;45242;-66
2022/08/30 08:07:57;;;;;;;;;11.67;11.67;;;;;;;;5114028;27;45341;-66
2022/08/30 08:10:22;;;;;;;;;11.00;9.00;;;;;;;;5110060;27;45396;-66
2022/08/30 08:12:47;;;;;;;;;13.67;11.33;;;;;;;;5116582;27;45317;-66
2022/08/30 08:15:12;;;;;;;;;10.00;10.00;;;;;;;;5111816;27;45451;-66
2022/08/30 08:17:37;;;;;;;;;11.00;9.67;;;;;;;;5116699;27;45378;-66
2022/08/30 08:20:03;;;;;;;;;9.67;9.67;;;;;;;;5114360;27;46248;-66
2022/08/30 08:22:28;;;;;;;;;12.67;10.00;;;;;;;;5119286;27;45375;-66
2022/08/30 08:24:53;;;;;;;;;11.33;9.00;;;;;;;;5122033;27;48246;-66
2022/08/30 08:27:18;;;;;;;;;12.33;12.33;;;;;;;;5119245;27;45201;-66
2022/08/30 08:29:44;;;;;;;;;18.67;14.00;;;;;;;;5120911;27;45451;-67
2022/08/30 08:32:09;;;;;;;;;15.33;10.67;;;;;;;;5115404;27;45451;-66
2022/08/30 08:34:34;;;;;;;;;10.33;9.33;;;;;;;;5122253;27;45302;-67
2022/08/30 08:37:01;;;;;;;;;11.67;11.00;;;;;;;;5115454;27;45395;-66
2022/08/30 08:39:26;;;;;;;;;11.33;10.33;;;;;;;;5126138;27;45328;-66
2022/08/30 08:41:51;;;;;;;;;10.00;8.00;;;;;;;;5112536;27;45356;-66
2022/08/30 08:44:22;;;;;;;;;13.33;9.67;;;;;;;;5117396;27;46687;-66
2022/08/30 08:46:50;;;;;;;;;12.33;10.00;;;;;;;;5113872;27;45399;-66
2022/08/30 08:49:15;;;;;;;;;10.33;9.00;;;;;;;;5118527;27;45454;-66
2022/08/30 08:54:34;;;;;;;;;11.00;8.00;;;;;;;;5110865;27;45280;-66
2022/08/30 08:57:00;;;;;;;;;10.67;10.67;;;;;;;;5118818;27;45339;-66
2022/08/30 08:59:25;;;;;;;;;11.67;11.00;;;;;;;;5119972;27;45367;-66
2022/08/30 09:01:50;;;;;;;;;13.00;9.67;;;;;;;;5117835;27;45590;-67
2022/08/30 09:04:25;;;;;;;;;13.00;13.00;;;;;;;;5124237;27;46399;-67
2022/08/30 09:06:57;;;;;;;;;14.33;12.00;;;;;;;;5115203;27;45867;-67
2022/08/30 09:09:28;;;;;;;;;9.00;9.00;;;;;;;;5112219;27;45414;-67
2022/08/30 09:11:53;;;;;;;;;12.00;11.67;;;;;;;;5111128;27;45288;-67
2022/08/30 09:14:21;;;;;;;;;10.00;9.67;;;;;;;;5114675;27;45474;-66
2022/08/30 09:17:06;;;;;;;;;13.00;12.00;;;;;;;;5111729;27;45370;-66
2022/08/30 09:19:37;;;;;;;;;13.00;10.33;;;;;;;;5115415;27;45233;-66
2022/08/30 09:22:04;;;;;;;;;9.00;7.33;;;;;;;;5118050;27;45556;-67
2022/08/30 09:24:37;;;;;;;;;12.67;11.33;;;;;;;;5118231;27;46553;-66
2022/08/30 09:27:13;;;;;;;;;13.00;13.00;;;;;;;;5117156;27;45252;-66
2022/08/30 09:29:48;;;;;;;;;10.33;10.00;;;;;;;;5120058;27;45439;-66
2022/08/30 09:32:22;;;;;;;;;14.67;10.33;;;;;;;;5114549;27;45355;-66
2022/08/30 09:34:47;;;;;;;;;13.00;11.67;;;;;;;;5121566;27;45614;-66
2022/08/30 09:37:27;;;;;;;;;15.00;10.33;;;;;;;;5115633;27;45383;-66
2022/08/30 09:39:52;;;;;;;;;10.00;10.00;;;;;;;;5109890;27;45258;-66
2022/08/30 09:42:19;;;;;;;;;12.67;10.00;;;;;;;;5113055;27;45755;-66
2022/08/30 09:44:44;;;;;;;;;13.00;11.00;;;;;;;;5116289;27;45294;-67
2022/08/30 09:47:18;;;;;;;;;10.33;8.67;;;;;;;;5109126;27;45372;-67
2022/08/30 09:49:43;;;;;;;;;11.00;10.33;;;;;;;;5107198;27;45408;-66
2022/08/30 09:52:12;;;;;;;;;11.33;8.33;;;;;;;;5117700;27;45370;-67
2022/08/30 09:54:45;;;;;;;;;9.00;8.67;;;;;;;;5113410;27;46106;-67
2022/08/30 09:57:20;;;;;;;;;10.33;10.00;;;;;;;;5113364;27;45233;-67
2022/08/30 10:00:00;;;;;;;;;9.00;8.00;;;;;;;;5108465;27;45328;-67
2022/08/30 10:02:42;;;;;;;;;10.00;10.00;;;;;;;;5117189;27;45402;-67
2022/08/30 10:05:22;;;;;;;;;8.00;8.00;;;;;;;;5112508;27;45517;-67
2022/08/30 10:07:53;;;;;;;;;17.00;15.25;;;;;;;;5118763;27;45239;-67
2022/08/30 10:10:26;;;;;;;;;13.00;11.00;;;;;;;;5112340;27;45473;-67
2022/08/30 10:12:51;;;;;;;;;10.33;10.33;;;;;;;;5122596;27;45506;-66
2022/08/30 10:15:35;;;;;;;;;16.33;12.00;;;;;;;;5115611;27;46602;-67
2022/08/30 10:18:17;;;;;;;;;11.67;11.67;;;;;;;;5114431;27;45439;-67
2022/08/30 10:20:53;;;;;;;;;12.67;10.67;;;;;;;;5118252;27;45485;-67
2022/08/30 10:23:21;;;;;;;;;9.00;9.00;;;;;;;;5114686;27;45311;-67
2022/08/30 10:25:49;;;;;;;;;10.33;8.33;;;;;;;;5119199;27;46404;-67
2022/08/30 10:28:32;;;;;;;;;9.67;9.33;;;;;;;;5115333;27;45328;-67
2022/08/30 10:31:01;;;;;;;;;12.00;10.00;;;;;;;;5108546;27;45526;-67
2022/08/30 10:33:29;;;;;;;;;12.00;11.00;;;;;;;;5112532;27;45569;-68
2022/08/30 10:35:56;;;;;;;;;12.67;10.00;;;;;;;;5118039;27;45396;-67
2022/08/30 10:38:28;;;;;;;;;14.33;11.00;;;;;;;;5108573;27;45397;-68
2022/08/30 10:41:18;;;;;;;;;14.33;12.00;;;;;;;;5110396;27;45218;-68
2022/08/30 10:44:02;;;;;;;;;14.67;10.33;;;;;;;;5116724;27;45366;-68
2022/08/30 10:46:33;;;;;;;;;15.00;14.67;;;;;;;;5113930;27;45781;-68
2022/08/30 10:49:00;;;;;;;;;12.67;11.67;;;;;;;;5116895;27;45258;-68
2022/08/30 10:51:37;;;;;;;;;18.00;14.67;;;;;;;;5107014;27;45391;-67
2022/08/30 10:54:08;;;;;;;;;11.67;10.67;;;;;;;;5120332;27;45362;-67
2022/08/30 10:56:36;;;;;;;;;9.00;8.33;;;;;;;;5111762;27;45282;-68
2022/08/30 10:59:03;;;;;;;;;11.67;11.67;;;;;;;;5123615;27;45445;-68
2022/08/30 11:01:40;;;;;;;;;11.00;8.00;;;;;;;;5113288;27;45466;-68
2022/08/30 11:04:06;;;;;;;;;9.67;9.00;;;;;;;;5122145;27;45435;-68
2022/08/30 11:06:39;;;;;;;;;9.33;9.00;;;;;;;;5107273;27;45500;-67
2022/08/30 11:09:23;;;;;;;;;10.00;10.00;;;;;;;;5119786;27;45531;-68
2022/08/30 11:12:07;;;;;;;;;8.33;7.00;;;;;;;;5107734;27;45388;-68
2022/08/30 11:14:32;;;;;;;;;11.67;11.67;;;;;;;;5113250;27;45295;-67
2022/08/30 11:16:59;;;;;;;;;9.67;9.67;;;;;;;;5116055;27;45986;-67
2022/08/30 11:19:26;;;;;;;;;11.00;10.00;;;;;;;;5116294;27;45338;-67
2022/08/30 11:21:52;;;;;;;;;11.00;9.33;;;;;;;;5114934;27;45721;-68
2022/08/30 11:24:23;;;;;;;;;19.50;16.50;;;;;;;;5105392;27;45561;-67
2022/08/30 11:26:53;;;;;;;;;11.33;11.00;;;;;;;;5112581;27;47914;-67
2022/08/30 11:29:33;;;;;;;;;14.00;14.00;;;;;;;;5115847;27;45471;-67
2022/08/30 11:31:59;;;;;;;;;11.50;11.25;;;;;;;;5118846;27;45422;-67
2022/08/30 11:34:43;;;;;;;;;13.00;12.75;;;;;;;;5111372;27;45325;-67
2022/08/30 11:37:09;;;;;;;;;11.33;10.33;;;;;;;;5119184;27;46033;-67
2022/08/30 11:39:37;;;;;;;;;11.00;11.00;;;;;;;;5112758;27;45350;-67
2022/08/30 11:42:31;;;;;;;;;9.67;9.67;;;;;;;;5110756;27;45301;-68
2022/08/30 11:45:15;;;;;;;;;12.00;11.00;;;;;;;;5100204;27;45486;-67
2022/08/30 11:47:48;;;;;;;;;11.00;8.33;;;;;;;;5117190;27;45399;-67
2022/08/30 11:50:18;;;;;;;;;16.00;13.00;;;;;;;;5116542;27;45550;-67
2022/08/30 11:52:55;;;;;;;;;13.33;10.00;;;;;;;;5117907;27;45273;-67
2022/08/30 11:55:39;;;;;;;;;12.25;11.50;;;;;;;;5105200;27;45337;-67
2022/08/30 11:58:10;;;;;;;;;8.67;8.00;;;;;;;;5116207;27;45434;-67
2022/08/30 12:00:38;;;;;;;;;9.33;9.33;;;;;;;;5117434;27;45418;-67
2022/08/30 12:03:25;;;;;;;;;8.67;8.67;;;;;;;;5120797;27;45331;-67
2022/08/30 12:05:53;;;;;;;;;10.00;9.00;;;;;;;;5122404;27;45618;-67
2022/08/30 12:08:19;;;;;;;;;7.67;7.67;;;;;;;;5125708;27;45575;-67
2022/08/30 12:10:45;;;;;;;;;10.33;10.33;;;;;;;;5118553;27;45372;-67
2022/08/30 12:13:29;;;;;;;;;10.00;9.50;;;;;;;;5115873;27;45448;-67
2022/08/30 12:15:54;;;;;;;;;11.50;11.00;;;;;;;;5119602;27;45628;-67
2022/08/30 12:18:29;;;;;;;;;15.00;13.25;;;;;;;;5125165;27;45421;-67
2022/08/30 12:21:03;;;;;;;;;10.00;8.67;;;;;;;;5123347;27;45253;-68
2022/08/30 12:23:32;;;;;;;;;11.00;10.33;;;;;;;;5119461;27;45346;-68
2022/08/30 12:26:15;;;;;;;;;11.00;10.00;;;;;;;;5107789;27;45270;-68
2022/08/30 12:28:41;;;;;;;;;10.67;9.33;;;;;;;;5109302;27;45458;-68
2022/08/30 12:31:12;;;;;;;;;9.00;9.00;;;;;;;;5108004;27;46012;-68
2022/08/30 12:33:40;;;;;;;;;10.33;9.67;;;;;;;;5108669;27;45411;-68
2022/08/30 12:36:05;;;;;;;;;13.67;11.00;;;;;;;;5110397;27;45649;-70
2022/08/30 12:38:31;;;;;;;;;12.75;10.25;;;;;;;;5122265;27;47242;-68
2022/08/30 12:40:57;;;;;;;;;15.50;14.00;;;;;;;;5119506;27;45503;-67
2022/08/30 12:43:27;;;;;;;;;13.33;12.00;;;;;;;;5122863;27;45341;-68
2022/08/30 12:45:55;;;;;;;;;11.25;11.25;;;;;;;;5108444;27;45598;-67
2022/08/30 12:48:21;;;;;;;;;11.67;9.33;;;;;;;;5118018;27;45502;-67
2022/08/30 12:50:50;;;;;;;;;13.00;13.00;;;;;;;;5113563;27;45408;-68
2022/08/30 12:53:20;;;;;;;;;12.67;9.33;;;;;;;;5116993;27;45242;-68
2022/08/30 12:55:51;;;;;;;;;11.25;11.25;;;;;;;;5109447;27;45394;-66
2022/08/30 12:58:16;;;;;;;;;11.33;9.33;;;;;;;;5107389;27;46401;-67
2022/08/30 13:00:43;;;;;;;;;5.00;5.00;;;;;;;;5118141;27;45545;-68
2022/08/30 13:03:27;;;;;;;;;11.00;10.00;;;;;;;;5117076;27;45444;-67
2022/08/30 13:05:53;;;;;;;;;9.00;9.00;;;;;;;;5107061;27;45380;-66
2022/08/30 13:08:28;;;;;;;;;11.00;11.00;;;;;;;;5117528;27;45382;-67
2022/08/30 13:10:55;;;;;;;;;11.00;10.33;;;;;;;;5112067;27;45549;-68
2022/08/30 13:13:30;;;;;;;;;8.33;8.33;;;;;;;;5122832;27;45329;-67
2022/08/30 13:15:55;;;;;;;;;11.33;8.00;;;;;;;;5116594;27;46481;-68
2022/08/30 13:18:31;;;;;;;;;10.00;9.67;;;;;;;;5115652;27;46713;-67
2022/08/30 13:21:08;;;;;;;;;9.67;9.67;;;;;;;;5117808;27;45602;-68
2022/08/30 13:23:33;;;;;;;;;13.00;11.67;;;;;;;;5110150;27;45458;-67
2022/08/30 13:25:58;;;;;;;;;9.67;9.33;;;;;;;;5107147;27;45733;-67
2022/08/30 13:28:24;;;;;;;;;7.67;7.67;;;;;;;;5116408;27;46916;-68
2022/08/30 13:30:49;;;;;;;;;12.33;12.33;;;;;;;;5107881;27;45393;-67
2022/08/30 13:33:15;;;;;;;;;11.33;10.33;;;;;;;;5108045;27;45189;-67
2022/08/30 13:35:41;;;;;;;;;10.67;10.67;;;;;;;;5118924;27;45277;-67
2022/08/30 13:38:06;;;;;;;;;6.75;5.00;;;;;;;;5108777;27;45517;-67
2022/08/30 13:40:31;;;;;;;;;12.33;11.67;;;;;;;;5106914;27;45582;-67
2022/08/30 13:42:57;;;;;;;;;13.00;12.00;;;;;;;;5116285;27;45287;-67
2022/08/30 13:45:22;;;;;;;;;9.67;9.67;;;;;;;;5117428;27;45442;-68
2022/08/30 13:47:48;;;;;;;;;15.00;11.00;;;;;;;;5118958;27;45551;-68
2022/08/30 13:50:13;;;;;;;;;10.00;9.33;;;;;;;;5120121;27;45404;-68
2022/08/30 13:52:38;;;;;;;;;8.67;8.00;;;;;;;;5120510;27;45356;-68
2022/08/30 13:55:04;;;;;;;;;10.33;10.33;;;;;;;;5119158;27;45591;-67
2022/08/30 13:57:29;;;;;;;;;12.33;10.33;;;;;;;;5118804;27;45320;-66
2022/08/30 13:59:55;;;;;;;;;10.00;9.00;;;;;;;;5121893;27;45890;-67
2022/08/30 14:02:20;;;;;;;;;9.67;9.67;;;;;;;;5109858;27;46148;-68
2022/08/30 14:04:45;;;;;;;;;14.00;11.00;;;;;;;;5108419;27;45544;-68
2022/08/30 14:07:10;;;;;;;;;9.00;9.00;;;;;;;;5117833;27;45473;-68
2022/08/30 14:09:36;;;;;;;;;13.50;12.00;;;;;;;;5109406;27;45292;-68
2022/08/30 14:12:01;;;;;;;;;11.00;11.00;;;;;;;;5108194;27;45351;-67
2022/08/30 14:14:26;;;;;;;;;9.75;9.00;;;;;;;;5111633;27;45542;-68
2022/08/30 14:16:51;;;;;;;;;13.67;11.00;;;;;;;;5108892;27;45406;-68
2022/08/30 14:19:17;;;;;;;;;11.33;10.00;;;;;;;;5110131;27;45287;-68
2022/08/30 14:21:42;;;;;;;;;10.00;10.00;;;;;;;;5108255;27;45417;-67
2022/08/30 14:24:08;;;;;;;;;18.00;15.00;;;;;;;;5122354;27;45295;-67
2022/08/30 14:26:38;;;;;;;;;11.00;9.33;;;;;;;;5115369;27;45537;-67
2022/08/30 14:29:05;;;;;;;;;11.67;9.00;;;;;;;;5111102;27;45523;-67
2022/08/30 14:31:30;;;;;;;;;9.33;9.33;;;;;;;;5116328;27;45469;-67
2022/08/30 14:33:55;;;;;;;;;9.00;9.00;;;;;;;;5120237;27;45295;-69
2022/08/30 14:36:21;;;;;;;;;10.00;10.00;;;;;;;;5118392;27;45599;-68